sensor_id;sensor_type;location;lat;lon;timestamp;temperature;humidity
5964;DHT22;3008;53.562;9.908;2023-03-31T11:29:34;23.10;88.40
5964;DHT22;3008;53.562;9.908;2023-03-31T11:32:32;23.20;86.10
5964;DHT22;3008;53.562;9.908;2023-03-31T11:41:08;21.90;81.20
5964;DHT22;3008;53.562;9.908;2023-03-31T11:43:41;21.70;81.80
5964;DHT22;3008;53.562;9.908;2023-03-31T11:46:16;21.50;83.40
5964;DHT22;3008;53.562;9.908;2023-03-31T11:54:03;21.60;83.30
5964;DHT22;3008;53.562;9.908;2023-03-31T11:56:38;21.70;83.30
5964;DHT22;3008;53.562;9.908;2023-03-31T11:59:06;21.80;83.40
5964;DHT22;3008;53.562;9.908;2023-03-31T12:04:05;21.90;83.50
5964;DHT22;3008;53.562;9.908;2023-03-31T12:06:39;21.90;83.60
5964;DHT22;3008;53.562;9.908;2023-03-31T12:12:01;20.10;81.50
5964;DHT22;3008;53.562;9.908;2023-03-31T12:14:59;21.60;83.00
5964;DHT22;3008;53.562;9.908;2023-03-31T12:17:27;22.00;83.40
5964;DHT22;3008;53.562;9.908;2023-03-31T12:20:05;22.00;83.40
5964;DHT22;3008;53.562;9.908;2023-03-31T12:22:40;22.00;83.40
5964;DHT22;3008;53.562;9.908;2023-03-31T12:25:12;22.00;83.40
5964;DHT22;3008;53.562;9.908;2023-03-31T12:27:43;22.00;83.40
5964;DHT22;3008;53.562;9.908;2023-03-31T12:30:12;22.00;83.40
5964;DHT22;3008;53.562;9.908;2023-03-31T12:32:48;22.00;83.30
5964;DHT22;3008;53.562;9.908;2023-03-31T12:35:23;22.00;83.30
5964;DHT22;3008;53.562;9.908;2023-03-31T12:40:49;22.00;84.30
5964;DHT22;3008;53.562;9.908;2023-03-31T12:46:24;22.00;83.40
5964;DHT22;3008;53.562;9.908;2023-03-31T12:54:47;22.00;83.10
5964;DHT22;3008;53.562;9.908;2023-03-31T12:57:26;22.00;83.10
5964;DHT22;3008;53.562;9.908;2023-03-31T13:02:37;22.10;83.00
5964;DHT22;3008;53.562;9.908;2023-03-31T13:08:03;22.10;83.60
5964;DHT22;3008;53.562;9.908;2023-03-31T13:10:30;22.10;83.50
5964;DHT22;3008;53.562;9.908;2023-03-31T13:13:13;22.10;83.80
5964;DHT22;3008;53.562;9.908;2023-03-31T13:15:39;22.20;84.40
5964;DHT22;3008;53.562;9.908;2023-03-31T13:18:06;22.10;83.80
5964;DHT22;3008;53.562;9.908;2023-03-31T13:20:33;22.20;83.80
5964;DHT22;3008;53.562;9.908;2023-03-31T13:23:20;22.10;83.70
5964;DHT22;3008;53.562;9.908;2023-03-31T13:25:54;22.20;83.80
5964;DHT22;3008;53.562;9.908;2023-03-31T13:28:24;22.20;83.70
5964;DHT22;3008;53.562;9.908;2023-03-31T13:30:56;22.20;83.80
5964;DHT22;3008;53.562;9.908;2023-03-31T13:33:56;22.20;84.10
5964;DHT22;3008;53.562;9.908;2023-03-31T13:36:42;22.20;84.10
5964;DHT22;3008;53.562;9.908;2023-03-31T13:47:57;22.30;85.10
5964;DHT22;3008;53.562;9.908;2023-03-31T13:56:25;22.40;85.60
5964;DHT22;3008;53.562;9.908;2023-03-31T14:01:43;22.40;85.70
5964;DHT22;3008;53.562;9.908;2023-03-31T14:07:08;22.40;85.10
5964;DHT22;3008;53.562;9.908;2023-03-31T14:09:36;22.40;85.10
5964;DHT22;3008;53.562;9.908;2023-03-31T14:12:30;22.40;84.90
5964;DHT22;3008;53.562;9.908;2023-03-31T14:14:56;22.40;85.00
5964;DHT22;3008;53.562;9.908;2023-03-31T14:17:39;22.40;85.10
5964;DHT22;3008;53.562;9.908;2023-03-31T14:26:02;22.40;85.20
5964;DHT22;3008;53.562;9.908;2023-03-31T14:28:39;22.40;85.20
5964;DHT22;3008;53.562;9.908;2023-03-31T14:37:11;22.40;85.30
5964;DHT22;3008;53.562;9.908;2023-03-31T14:39:46;22.40;85.20
5964;DHT22;3008;53.562;9.908;2023-03-31T14:42:18;22.40;85.20
5964;DHT22;3008;53.562;9.908;2023-03-31T14:44:46;22.50;85.20
5964;DHT22;3008;53.562;9.908;2023-03-31T14:47:26;22.50;85.10
5964;DHT22;3008;53.562;9.908;2023-03-31T14:49:59;22.60;85.20
5964;DHT22;3008;53.562;9.908;2023-03-31T14:52:29;22.60;85.10
5964;DHT22;3008;53.562;9.908;2023-03-31T14:54:55;22.60;85.10
5964;DHT22;3008;53.562;9.908;2023-03-31T14:57:35;22.40;83.50
5964;DHT22;3008;53.562;9.908;2023-03-31T15:00:07;22.10;83.20
5964;DHT22;3008;53.562;9.908;2023-03-31T15:02:37;21.80;83.30
5964;DHT22;3008;53.562;9.908;2023-03-31T15:05:08;21.70;83.30
5964;DHT22;3008;53.562;9.908;2023-03-31T15:07:40;21.50;82.90
5964;DHT22;3008;53.562;9.908;2023-03-31T15:10:06;21.40;83.40
5964;DHT22;3008;53.562;9.908;2023-03-31T15:12:33;21.30;83.50
5964;DHT22;3008;53.562;9.908;2023-03-31T15:15:03;21.20;83.00
5964;DHT22;3008;53.562;9.908;2023-03-31T15:17:36;20.80;83.40
5964;DHT22;3008;53.562;9.908;2023-03-31T15:22:54;20.40;83.50
5964;DHT22;3008;53.562;9.908;2023-03-31T15:25:21;20.30;82.90
5964;DHT22;3008;53.562;9.908;2023-03-31T15:28:00;20.10;83.90
5964;DHT22;3008;53.562;9.908;2023-03-31T15:30:37;20.10;83.90
5964;DHT22;3008;53.562;9.908;2023-03-31T15:33:06;19.90;84.20
5964;DHT22;3008;53.562;9.908;2023-03-31T15:35:34;19.90;84.70
5964;DHT22;3008;53.562;9.908;2023-03-31T15:38:03;19.80;84.80
5964;DHT22;3008;53.562;9.908;2023-03-31T15:40:37;20.00;86.50
5964;DHT22;3008;53.562;9.908;2023-03-31T15:43:13;20.00;86.10
5964;DHT22;3008;53.562;9.908;2023-03-31T15:45:48;20.10;85.80
5964;DHT22;3008;53.562;9.908;2023-03-31T15:48:32;20.30;85.90
5964;DHT22;3008;53.562;9.908;2023-03-31T15:51:01;20.50;85.50
5964;DHT22;3008;53.562;9.908;2023-03-31T15:53:36;20.60;85.20
5964;DHT22;3008;53.562;9.908;2023-03-31T15:56:03;20.70;84.80
5964;DHT22;3008;53.562;9.908;2023-03-31T15:58:59;20.80;84.80
5964;DHT22;3008;53.562;9.908;2023-03-31T16:01:34;20.90;84.80
5964;DHT22;3008;53.562;9.908;2023-03-31T16:04:07;21.00;84.50
5964;DHT22;3008;53.562;9.908;2023-03-31T16:06:36;21.00;84.20
5964;DHT22;3008;53.562;9.908;2023-03-31T16:09:06;21.10;84.30
5964;DHT22;3008;53.562;9.908;2023-03-31T16:11:37;21.10;84.10
5964;DHT22;3008;53.562;9.908;2023-03-31T16:14:21;21.20;84.00
5964;DHT22;3008;53.562;9.908;2023-03-31T16:16:51;21.20;83.70
5964;DHT22;3008;53.562;9.908;2023-03-31T16:19:20;21.30;83.80
5964;DHT22;3008;53.562;9.908;2023-03-31T16:21:50;21.30;83.60
5964;DHT22;3008;53.562;9.908;2023-03-31T16:24:19;21.30;83.60
5964;DHT22;3008;53.562;9.908;2023-03-31T16:26:45;21.30;83.40
5964;DHT22;3008;53.562;9.908;2023-03-31T16:29:19;21.40;83.40
5964;DHT22;3008;53.562;9.908;2023-03-31T16:31:46;21.40;83.30
5964;DHT22;3008;53.562;9.908;2023-03-31T16:34:12;21.40;83.30
5964;DHT22;3008;53.562;9.908;2023-03-31T16:36:38;21.40;83.20
5964;DHT22;3008;53.562;9.908;2023-03-31T16:39:04;21.60;83.30
5964;DHT22;3008;53.562;9.908;2023-03-31T16:41:34;21.40;83.00
5964;DHT22;3008;53.562;9.908;2023-03-31T16:44:01;21.50;83.20
5964;DHT22;3008;53.562;9.908;2023-03-31T16:46:27;21.40;83.00
5964;DHT22;3008;53.562;9.908;2023-03-31T16:48:53;21.50;83.10
5964;DHT22;3008;53.562;9.908;2023-03-31T16:51:19;21.50;83.00
5964;DHT22;3008;53.562;9.908;2023-03-31T16:53:45;21.50;82.90
5964;DHT22;3008;53.562;9.908;2023-03-31T16:56:11;21.50;82.90
5964;DHT22;3008;53.562;9.908;2023-03-31T16:58:39;21.50;82.90
5964;DHT22;3008;53.562;9.908;2023-03-31T17:01:05;21.50;82.90
5964;DHT22;3008;53.562;9.908;2023-03-31T17:03:32;21.50;82.80
5964;DHT22;3008;53.562;9.908;2023-03-31T17:06:07;21.50;82.70
5964;DHT22;3008;53.562;9.908;2023-03-31T17:08:33;22.50;83.70
5964;DHT22;3008;53.562;9.908;2023-03-31T17:11:02;21.50;82.60
5964;DHT22;3008;53.562;9.908;2023-03-31T17:13:28;21.60;82.70
5964;DHT22;3008;53.562;9.908;2023-03-31T17:15:54;21.60;82.70
5964;DHT22;3008;53.562;9.908;2023-03-31T17:18:20;21.60;82.70
5964;DHT22;3008;53.562;9.908;2023-03-31T17:20:46;21.60;82.70
5964;DHT22;3008;53.562;9.908;2023-03-31T17:23:11;21.60;82.60
5964;DHT22;3008;53.562;9.908;2023-03-31T17:25:37;21.60;82.60
5964;DHT22;3008;53.562;9.908;2023-03-31T17:28:03;21.60;82.60
5964;DHT22;3008;53.562;9.908;2023-03-31T17:30:30;21.60;82.60
5964;DHT22;3008;53.562;9.908;2023-03-31T17:32:56;21.60;82.50
5964;DHT22;3008;53.562;9.908;2023-03-31T17:35:23;21.60;82.50
5964;DHT22;3008;53.562;9.908;2023-03-31T17:37:50;21.60;83.30
5964;DHT22;3008;53.562;9.908;2023-03-31T17:40:19;21.60;82.50
5964;DHT22;3008;53.562;9.908;2023-03-31T17:42:45;21.60;82.50
5964;DHT22;3008;53.562;9.908;2023-03-31T17:45:12;21.60;82.50
5964;DHT22;3008;53.562;9.908;2023-03-31T17:47:39;21.60;83.30
5964;DHT22;3008;53.562;9.908;2023-03-31T17:50:06;21.60;82.60
5964;DHT22;3008;53.562;9.908;2023-03-31T17:52:34;21.60;82.40
5964;DHT22;3008;53.562;9.908;2023-03-31T17:55:01;21.60;82.40
5964;DHT22;3008;53.562;9.908;2023-03-31T17:57:27;21.60;82.50
5964;DHT22;3008;53.562;9.908;2023-03-31T17:59:53;21.60;82.30
5964;DHT22;3008;53.562;9.908;2023-03-31T18:02:18;21.60;82.30
5964;DHT22;3008;53.562;9.908;2023-03-31T18:04:45;21.60;82.30
5964;DHT22;3008;53.562;9.908;2023-03-31T18:07:11;21.60;82.30
5964;DHT22;3008;53.562;9.908;2023-03-31T18:09:37;21.50;82.20
5964;DHT22;3008;53.562;9.908;2023-03-31T18:12:04;21.60;82.20
5964;DHT22;3008;53.562;9.908;2023-03-31T18:14:30;21.50;82.10
5964;DHT22;3008;53.562;9.908;2023-03-31T18:16:55;21.60;82.20
5964;DHT22;3008;53.562;9.908;2023-03-31T18:19:22;21.60;82.30
5964;DHT22;3008;53.562;9.908;2023-03-31T18:21:48;21.50;82.10
5964;DHT22;3008;53.562;9.908;2023-03-31T18:24:14;21.50;82.00
5964;DHT22;3008;53.562;9.908;2023-03-31T18:26:41;21.50;82.90
5964;DHT22;3008;53.562;9.908;2023-03-31T18:29:06;21.50;82.00
5964;DHT22;3008;53.562;9.908;2023-03-31T18:31:32;21.60;82.20
5964;DHT22;3008;53.562;9.908;2023-03-31T18:33:58;21.50;82.10
5964;DHT22;3008;53.562;9.908;2023-03-31T18:36:24;21.50;82.00
5964;DHT22;3008;53.562;9.908;2023-03-31T18:38:50;21.50;82.00
5964;DHT22;3008;53.562;9.908;2023-03-31T18:41:18;21.50;82.10
5964;DHT22;3008;53.562;9.908;2023-03-31T18:43:43;21.50;82.00
5964;DHT22;3008;53.562;9.908;2023-03-31T18:46:10;21.50;82.00
5964;DHT22;3008;53.562;9.908;2023-03-31T18:48:36;21.50;82.00
5964;DHT22;3008;53.562;9.908;2023-03-31T18:51:03;21.50;82.00
5964;DHT22;3008;53.562;9.908;2023-03-31T18:53:29;21.50;82.00
5964;DHT22;3008;53.562;9.908;2023-03-31T18:55:57;21.50;82.00
5964;DHT22;3008;53.562;9.908;2023-03-31T18:58:24;21.50;82.00
5964;DHT22;3008;53.562;9.908;2023-03-31T19:00:51;21.50;82.00
5964;DHT22;3008;53.562;9.908;2023-03-31T19:03:16;21.50;82.00
5964;DHT22;3008;53.562;9.908;2023-03-31T19:05:43;21.50;82.80
5964;DHT22;3008;53.562;9.908;2023-03-31T19:08:09;21.50;81.90
5964;DHT22;3008;53.562;9.908;2023-03-31T19:10:35;21.50;82.00
5964;DHT22;3008;53.562;9.908;2023-03-31T19:13:00;21.50;81.90
5964;DHT22;3008;53.562;9.908;2023-03-31T19:15:27;21.50;81.90
5964;DHT22;3008;53.562;9.908;2023-03-31T19:17:53;21.50;81.90
5964;DHT22;3008;53.562;9.908;2023-03-31T19:20:19;21.50;81.90
5964;DHT22;3008;53.562;9.908;2023-03-31T19:22:47;21.50;81.90
5964;DHT22;3008;53.562;9.908;2023-03-31T19:25:15;21.50;81.90
5964;DHT22;3008;53.562;9.908;2023-03-31T19:27:41;21.50;81.90
5964;DHT22;3008;53.562;9.908;2023-03-31T19:30:16;21.50;81.90
5964;DHT22;3008;53.562;9.908;2023-03-31T19:32:43;21.50;81.80
5964;DHT22;3008;53.562;9.908;2023-03-31T19:35:09;21.50;81.80
5964;DHT22;3008;53.562;9.908;2023-03-31T19:37:35;21.50;82.00
5964;DHT22;3008;53.562;9.908;2023-03-31T19:40:03;21.50;81.80
5964;DHT22;3008;53.562;9.908;2023-03-31T19:42:31;21.50;81.80
5964;DHT22;3008;53.562;9.908;2023-03-31T19:44:57;21.50;81.80
5964;DHT22;3008;53.562;9.908;2023-03-31T19:47:22;21.50;81.80
5964;DHT22;3008;53.562;9.908;2023-03-31T19:49:48;21.50;81.80
5964;DHT22;3008;53.562;9.908;2023-03-31T19:52:14;21.50;81.80
5964;DHT22;3008;53.562;9.908;2023-03-31T19:54:39;21.50;81.80
5964;DHT22;3008;53.562;9.908;2023-03-31T19:57:05;21.40;81.70
5964;DHT22;3008;53.562;9.908;2023-03-31T19:59:34;21.40;81.70
5964;DHT22;3008;53.562;9.908;2023-03-31T20:02:00;21.40;82.50
5964;DHT22;3008;53.562;9.908;2023-03-31T20:04:30;21.40;81.70
5964;DHT22;3008;53.562;9.908;2023-03-31T20:06:56;21.40;81.70
5964;DHT22;3008;53.562;9.908;2023-03-31T20:09:22;21.40;81.70
5964;DHT22;3008;53.562;9.908;2023-03-31T20:11:50;21.40;81.70
5964;DHT22;3008;53.562;9.908;2023-03-31T20:14:18;21.40;81.70
5964;DHT22;3008;53.562;9.908;2023-03-31T20:16:44;21.40;81.70
5964;DHT22;3008;53.562;9.908;2023-03-31T20:19:12;21.40;81.70
5964;DHT22;3008;53.562;9.908;2023-03-31T20:21:39;21.40;81.70
5964;DHT22;3008;53.562;9.908;2023-03-31T20:24:13;21.40;81.70
5964;DHT22;3008;53.562;9.908;2023-03-31T20:26:40;21.40;81.70
5964;DHT22;3008;53.562;9.908;2023-03-31T20:29:05;21.40;81.70
5964;DHT22;3008;53.562;9.908;2023-03-31T20:31:34;21.40;81.70
5964;DHT22;3008;53.562;9.908;2023-03-31T20:34:05;21.40;81.60
5964;DHT22;3008;53.562;9.908;2023-03-31T20:36:37;21.40;81.70
5964;DHT22;3008;53.562;9.908;2023-03-31T20:39:04;21.40;81.60
5964;DHT22;3008;53.562;9.908;2023-03-31T20:41:31;21.40;81.60
5964;DHT22;3008;53.562;9.908;2023-03-31T20:43:58;21.40;81.60
5964;DHT22;3008;53.562;9.908;2023-03-31T20:46:24;21.40;81.60
5964;DHT22;3008;53.562;9.908;2023-03-31T20:48:51;21.40;81.60
5964;DHT22;3008;53.562;9.908;2023-03-31T20:51:21;21.40;81.60
5964;DHT22;3008;53.562;9.908;2023-03-31T20:53:48;21.40;81.60
5964;DHT22;3008;53.562;9.908;2023-03-31T20:56:17;21.40;81.60
5964;DHT22;3008;53.562;9.908;2023-03-31T20:58:45;21.40;81.60
5964;DHT22;3008;53.562;9.908;2023-03-31T21:01:12;21.30;81.50
5964;DHT22;3008;53.562;9.908;2023-03-31T21:03:38;21.40;81.60
5964;DHT22;3008;53.562;9.908;2023-03-31T21:06:06;21.30;81.50
5964;DHT22;3008;53.562;9.908;2023-03-31T21:08:32;21.30;81.50
5964;DHT22;3008;53.562;9.908;2023-03-31T21:10:58;21.30;81.50
5964;DHT22;3008;53.562;9.908;2023-03-31T21:13:26;21.30;81.50
5964;DHT22;3008;53.562;9.908;2023-03-31T21:15:53;21.30;81.50
5964;DHT22;3008;53.562;9.908;2023-03-31T21:18:24;21.30;81.50
5964;DHT22;3008;53.562;9.908;2023-03-31T21:20:55;21.30;81.70
5964;DHT22;3008;53.562;9.908;2023-03-31T21:23:22;21.40;81.80
5964;DHT22;3008;53.562;9.908;2023-03-31T21:25:49;21.40;82.00
5964;DHT22;3008;53.562;9.908;2023-03-31T21:33:20;21.40;82.40
5964;DHT22;3008;53.562;9.908;2023-03-31T21:35:46;21.40;83.10
5964;DHT22;3008;53.562;9.908;2023-03-31T21:38:12;21.40;83.60
5964;DHT22;3008;53.562;9.908;2023-03-31T21:40:38;21.40;83.20
5964;DHT22;3008;53.562;9.908;2023-03-31T21:43:03;21.40;83.10
5964;DHT22;3008;53.562;9.908;2023-03-31T21:45:29;21.40;83.10
5964;DHT22;3008;53.562;9.908;2023-03-31T21:47:55;21.40;83.30
5964;DHT22;3008;53.562;9.908;2023-03-31T21:50:22;21.40;83.30
5964;DHT22;3008;53.562;9.908;2023-03-31T21:52:48;21.40;83.40
5964;DHT22;3008;53.562;9.908;2023-03-31T21:55:14;21.30;83.40
5964;DHT22;3008;53.562;9.908;2023-03-31T21:57:40;21.30;83.20
5964;DHT22;3008;53.562;9.908;2023-03-31T22:00:06;21.40;83.30
5964;DHT22;3008;53.562;9.908;2023-03-31T22:02:38;21.30;83.10
5964;DHT22;3008;53.562;9.908;2023-03-31T22:05:04;21.30;83.00
5964;DHT22;3008;53.562;9.908;2023-03-31T22:07:31;21.30;83.00
5964;DHT22;3008;53.562;9.908;2023-03-31T22:09:56;21.30;83.00
5964;DHT22;3008;53.562;9.908;2023-03-31T22:12:22;21.30;83.10
5964;DHT22;3008;53.562;9.908;2023-03-31T22:14:48;21.30;83.10
5964;DHT22;3008;53.562;9.908;2023-03-31T22:17:14;21.30;83.20
5964;DHT22;3008;53.562;9.908;2023-03-31T22:19:40;21.30;83.00
5964;DHT22;3008;53.562;9.908;2023-03-31T22:22:08;21.30;83.10
5964;DHT22;3008;53.562;9.908;2023-03-31T22:24:34;21.30;83.10
5964;DHT22;3008;53.562;9.908;2023-03-31T22:27:00;21.30;83.20
5964;DHT22;3008;53.562;9.908;2023-03-31T22:29:25;21.30;83.20
5964;DHT22;3008;53.562;9.908;2023-03-31T22:31:51;20.70;82.60
5964;DHT22;3008;53.562;9.908;2023-03-31T22:34:17;21.30;83.30
5964;DHT22;3008;53.562;9.908;2023-03-31T22:36:46;21.30;83.30
5964;DHT22;3008;53.562;9.908;2023-03-31T22:39:13;21.30;83.30
5964;DHT22;3008;53.562;9.908;2023-03-31T22:41:39;21.30;83.30
5964;DHT22;3008;53.562;9.908;2023-03-31T22:44:05;21.30;83.30
5964;DHT22;3008;53.562;9.908;2023-03-31T22:46:31;21.30;83.30
5964;DHT22;3008;53.562;9.908;2023-03-31T22:48:57;21.30;83.30
5964;DHT22;3008;53.562;9.908;2023-03-31T22:51:22;21.30;83.30
5964;DHT22;3008;53.562;9.908;2023-03-31T22:53:49;21.30;83.40
5964;DHT22;3008;53.562;9.908;2023-03-31T22:56:16;21.30;83.40
5964;DHT22;3008;53.562;9.908;2023-03-31T22:58:42;21.30;83.40
5964;DHT22;3008;53.562;9.908;2023-03-31T23:01:11;21.30;83.40
5964;DHT22;3008;53.562;9.908;2023-03-31T23:03:43;21.30;83.50
5964;DHT22;3008;53.562;9.908;2023-03-31T23:06:10;21.30;83.40
5964;DHT22;3008;53.562;9.908;2023-03-31T23:08:36;20.00;82.10
5964;DHT22;3008;53.562;9.908;2023-03-31T23:11:06;21.20;83.40
5964;DHT22;3008;53.562;9.908;2023-03-31T23:13:32;21.30;83.50
5964;DHT22;3008;53.562;9.908;2023-03-31T23:16:18;21.30;83.60
5964;DHT22;3008;53.562;9.908;2023-03-31T23:18:44;21.30;83.50
5964;DHT22;3008;53.562;9.908;2023-03-31T23:21:18;21.30;83.50
5964;DHT22;3008;53.562;9.908;2023-03-31T23:23:44;21.20;83.40
5964;DHT22;3008;53.562;9.908;2023-03-31T23:26:11;21.20;83.40
5964;DHT22;3008;53.562;9.908;2023-03-31T23:28:38;21.30;83.50
5964;DHT22;3008;53.562;9.908;2023-03-31T23:31:04;21.30;83.70
5964;DHT22;3008;53.562;9.908;2023-03-31T23:33:30;21.20;83.70
5964;DHT22;3008;53.562;9.908;2023-03-31T23:36:00;21.20;83.70
5964;DHT22;3008;53.562;9.908;2023-03-31T23:38:27;21.20;83.70
5964;DHT22;3008;53.562;9.908;2023-03-31T23:40:53;21.30;83.80
5964;DHT22;3008;53.562;9.908;2023-03-31T23:43:18;21.20;83.90
5964;DHT22;3008;53.562;9.908;2023-03-31T23:45:44;21.20;84.00
5964;DHT22;3008;53.562;9.908;2023-03-31T23:48:10;21.20;83.90
5964;DHT22;3008;53.562;9.908;2023-03-31T23:50:37;21.80;84.60
5964;DHT22;3008;53.562;9.908;2023-03-31T23:53:03;21.20;84.00
5964;DHT22;3008;53.562;9.908;2023-03-31T23:55:29;19.60;82.40
5964;DHT22;3008;53.562;9.908;2023-03-31T23:57:55;21.20;84.20
